Time;durP1;ratioP1;P1;durP2;ratioP2;P2;SDS_P1;SDS_P2;PMS_P1;PMS_P2;Temp;Humidity;BMP_temperature;BMP_pressure;BME280_temperature;BME280_humidity;BME280_pressure;Samples;Min_cycle;Max_cycle;Signal;HPM_P1;HPM_P2
2022/06/20 00:00:33;;;;;;;;;;;;;;;14.52;77.76;95341.38;5134136;28;980;-50
2022/06/20 00:02:59;;;;;;;;;;;;;;;14.32;78.31;95327.56;5134272;28;1024;-50
2022/06/20 00:05:26;;;;;;;;;;;;;;;14.27;78.71;95330.00;5134030;28;1024;-50
2022/06/20 00:07:53;;;;;;;;;;;;;;;14.17;78.91;95328.38;5134453;28;1023;-50
2022/06/20 00:10:20;;;;;;;;;;;;;;;14.29;78.85;95327.94;5134092;28;1016;-50
2022/06/20 00:12:47;;;;;;;;;;;;;;;14.39;78.46;95328.53;5133832;28;1052;-50
2022/06/20 00:15:36;;;;;;;;;;;;;;;14.44;78.48;95326.97;5133937;28;1913;-50
2022/06/20 00:18:04;;;;;;;;;;;;;;;14.27;78.38;95327.28;5120609;28;1895;-50
2022/06/20 00:20:30;;;;;;;;;;;;;;;14.07;78.88;95322.38;5133930;28;1028;-50
2022/06/20 00:22:57;;;;;;;;;;;;;;;14.00;79.55;95319.56;5133904;28;968;-50
2022/06/20 00:25:23;;;;;;;;;;;;;;;14.17;78.83;95328.38;5133647;28;1031;-50
2022/06/20 00:27:50;;;;;;;;;;;;;;;14.22;78.34;95323.25;5134053;28;1125;-50
2022/06/20 00:30:17;;;;;;;;;;;;;;;14.24;78.42;95328.47;5134166;28;1007;-50
2022/06/20 00:32:43;;;;;;;;;;;;;;;14.06;79.25;95328.78;5133801;28;1034;-50
2022/06/20 00:35:09;;;;;;;;;;;;;;;13.95;79.43;95330.00;5133970;28;1988;-50
2022/06/20 00:37:35;;;;;;;;;;;;;;;13.84;79.51;95325.88;5133596;28;1289;-50
2022/06/20 00:40:01;;;;;;;;;;;;;;;13.78;79.97;95323.06;5133840;28;951;-50
2022/06/20 00:42:27;;;;;;;;;;;;;;;13.73;80.01;95322.75;5133427;28;1090;-50
2022/06/20 00:44:56;;;;;;;;;;;;;;;13.65;80.21;95315.56;5133997;28;1045;-50
2022/06/20 00:47:29;;;;;;;;;;;;;;;13.62;80.39;95315.91;5133634;28;1214;-50
2022/06/20 00:50:18;;;;;;;;;;;;;;;13.68;79.91;95315.22;5133681;28;1024;-50
2022/06/20 00:52:48;;;;;;;;;;;;;;;13.60;80.42;95324.19;5120266;28;1842;-50
2022/06/20 00:55:26;;;;;;;;;;;;;;;13.60;80.32;95317.94;5133677;28;1910;-50
2022/06/20 00:58:00;;;;;;;;;;;;;;;13.59;79.98;95322.50;5134075;27;1044;-50
2022/06/20 01:00:28;;;;;;;;;;;;;;;13.59;80.56;95322.50;5137250;27;1091;-50
2022/06/20 01:03:23;;;;;;;;;;;;;;;13.52;80.86;95318.81;5137120;27;1056;-50
2022/06/20 01:05:52;;;;;;;;;;;;;;;13.61;80.88;95319.63;5115525;27;1301;-50
2022/06/20 01:08:22;;;;;;;;;;;;;;;13.84;78.98;95320.50;5136957;27;1011;-50
2022/06/20 01:10:51;;;;;;;;;;;;;;;13.81;79.58;95312.81;5137214;27;991;-50
2022/06/20 01:13:19;;;;;;;;;;;;;;;13.61;79.63;95309.72;5136921;27;1956;-50
2022/06/20 01:15:45;;;;;;;;;;;;;;;13.44;80.44;95311.63;5136817;27;1979;-50
2022/06/20 01:18:20;;;;;;;;;;;;;;;13.42;80.23;95316.34;5136853;27;1948;-50
2022/06/20 01:20:47;;;;;;;;;;;;;;;13.32;80.65;95307.69;5137037;27;960;-50
2022/06/20 01:23:16;;;;;;;;;;;;;;;13.34;81.21;95308.34;5136977;27;1215;-50
2022/06/20 01:25:52;;;;;;;;;;;;;;;13.33;80.99;95309.34;5136563;27;1086;-50
2022/06/20 01:28:21;;;;;;;;;;;;;;;13.29;80.77;95316.03;5136644;27;1032;-50
2022/06/20 01:30:47;;;;;;;;;;;;;;;13.24;81.04;95315.72;5136899;27;996;-50
2022/06/20 01:33:15;;;;;;;;;;;;;;;13.28;80.73;95314.38;5136889;27;1052;-50
2022/06/20 01:38:27;;;;;;;;;;;;;;;13.44;80.25;95325.06;5136534;27;973;-50
2022/06/20 01:43:38;;;;;;;;;;;;;;;13.22;80.75;95321.28;5115895;28;980;-50
2022/06/20 01:46:09;;;;;;;;;;;;;;;13.01;81.38;95319.16;5115991;28;1082;-50
2022/06/20 01:48:36;;;;;;;;;;;;;;;13.21;81.14;95327.66;5115727;28;1072;-50
2022/06/20 01:51:05;;;;;;;;;;;;;;;13.21;81.17;95324.97;5115772;28;1060;-50
2022/06/20 01:53:33;;;;;;;;;;;;;;;13.26;80.40;95327.13;5115701;28;957;-50
2022/06/20 01:56:00;;;;;;;;;;;;;;;13.10;80.45;95328.03;5115727;28;1983;-50
2022/06/20 01:58:31;;;;;;;;;;;;;;;12.94;80.94;95325.38;5115727;28;1020;-50
2022/06/20 02:00:59;;;;;;;;;;;;;;;12.82;81.96;95327.59;5115588;28;960;-50
2022/06/20 02:03:25;;;;;;;;;;;;;;;12.77;82.34;95322.75;5115536;28;941;-50
2022/06/20 02:05:54;;;;;;;;;;;;;;;13.05;81.18;95322.31;5118644;27;1196;-50
2022/06/20 02:08:21;;;;;;;;;;;;;;;13.23;80.65;95322.94;5136244;27;1024;-50
2022/06/20 02:10:53;;;;;;;;;;;;;;;13.28;80.52;95322.44;5135601;27;1102;-50
2022/06/20 02:13:20;;;;;;;;;;;;;;;13.08;80.57;95320.13;5135878;27;1024;-50
2022/06/20 02:15:48;;;;;;;;;;;;;;;12.80;81.58;95317.00;5135532;27;1988;-50
2022/06/20 02:18:15;;;;;;;;;;;;;;;12.70;82.85;95316.38;5135761;27;1024;-50
2022/06/20 02:20:47;;;;;;;;;;;;;;;12.81;82.26;95318.69;5135435;27;1044;-50
2022/06/20 02:23:19;;;;;;;;;;;;;;;12.95;81.49;95316.31;5135736;27;1024;-50
2022/06/20 02:25:47;;;;;;;;;;;;;;;12.93;81.30;95308.44;5135361;27;965;-50
2022/06/20 02:28:18;;;;;;;;;;;;;;;12.96;81.21;95305.41;5135609;27;1878;-50
2022/06/20 02:30:44;;;;;;;;;;;;;;;12.83;81.01;95311.31;5135351;27;984;-50
2022/06/20 02:33:14;;;;;;;;;;;;;;;12.54;81.94;95314.56;5135479;27;1024;-50
2022/06/20 02:35:40;;;;;;;;;;;;;;;12.48;82.61;95320.56;5135049;27;1910;-50
2022/06/20 02:38:07;;;;;;;;;;;;;;;12.55;82.50;95318.91;5135402;27;1032;-50
2022/06/20 02:40:33;;;;;;;;;;;;;;;12.72;82.21;95325.09;5138808;27;1090;-50
2022/06/20 02:43:05;;;;;;;;;;;;;;;12.86;81.61;95320.84;5156128;27;1030;-50
2022/06/20 02:45:33;;;;;;;;;;;;;;;12.89;81.26;95310.63;5155669;27;1079;-50
2022/06/20 02:48:01;;;;;;;;;;;;;;;12.94;81.05;95304.75;5156213;27;1055;-50
2022/06/20 02:50:30;;;;;;;;;;;;;;;12.78;81.38;95310.97;5155629;27;1036;-50
2022/06/20 02:53:02;;;;;;;;;;;;;;;12.83;81.15;95316.69;5156009;27;1026;-50
2022/06/20 02:55:30;;;;;;;;;;;;;;;12.83;81.30;95323.91;5155291;27;1913;-50
2022/06/20 02:57:58;;;;;;;;;;;;;;;12.80;81.32;95325.06;5155735;27;1024;-50
2022/06/20 03:00:33;;;;;;;;;;;;;;;12.70;81.61;95317.19;5155727;27;1157;-50
2022/06/20 03:03:03;;;;;;;;;;;;;;;12.57;81.65;95319.56;5155731;27;1028;-50
2022/06/20 03:05:29;;;;;;;;;;;;;;;12.45;82.19;95319.06;5155280;27;1156;-50
2022/06/20 03:07:55;;;;;;;;;;;;;;;12.44;82.95;95322.75;5135009;27;1004;-50
2022/06/20 03:10:41;;;;;;;;;;;;;;;12.54;82.41;95321.75;5134719;27;965;-50
2022/06/20 03:13:08;;;;;;;;;;;;;;;12.62;82.25;95325.28;5134845;27;1032;-50
2022/06/20 03:15:35;;;;;;;;;;;;;;;12.74;82.18;95319.56;5134619;27;1910;-50
2022/06/20 03:18:04;;;;;;;;;;;;;;;12.89;81.43;95326.72;5134772;27;1035;-51
2022/06/20 03:20:30;;;;;;;;;;;;;;;12.83;81.76;95321.22;5115888;28;1036;-50
2022/06/20 03:23:16;;;;;;;;;;;;;;;12.74;81.64;95320.38;5134751;27;1011;-50
2022/06/20 03:25:42;;;;;;;;;;;;;;;12.54;82.69;95325.28;5134500;27;1166;-50
2022/06/20 03:28:12;;;;;;;;;;;;;;;12.45;83.13;95313.72;5134824;27;1019;-50
2022/06/20 03:30:39;;;;;;;;;;;;;;;12.58;83.64;95323.94;5134503;27;976;-50
2022/06/20 03:33:06;;;;;;;;;;;;;;;12.69;82.94;95317.38;5134673;27;1008;-50
2022/06/20 03:35:33;;;;;;;;;;;;;;;12.78;82.57;95321.72;5134232;27;1901;-50
2022/06/20 03:38:01;;;;;;;;;;;;;;;12.85;82.55;95319.19;5134416;27;969;-50
2022/06/20 03:40:28;;;;;;;;;;;;;;;12.96;82.77;95316.16;5134376;27;1111;-51
2022/06/20 03:42:56;;;;;;;;;;;;;;;13.09;82.57;95316.44;5134503;27;1044;-51
2022/06/20 03:45:23;;;;;;;;;;;;;;;13.26;82.27;95314.56;5134382;28;1016;-50
2022/06/20 03:47:54;;;;;;;;;;;;;;;13.55;82.26;95315.78;5134244;28;925;-51
2022/06/20 03:50:23;;;;;;;;;;;;;;;13.73;82.08;95310.16;5134269;28;1048;-50
2022/06/20 03:53:03;;;;;;;;;;;;;;;13.74;82.03;95314.53;5134102;28;1029;-50
2022/06/20 03:55:29;;;;;;;;;;;;;;;13.91;82.04;95319.81;5134121;28;1910;-50
2022/06/20 03:58:02;;;;;;;;;;;;;;;13.99;81.98;95323.25;5134190;28;1032;-51
2022/06/20 04:00:35;;;;;;;;;;;;;;;13.95;82.29;95321.94;5134166;28;1040;-49
2022/06/20 04:03:01;;;;;;;;;;;;;;;14.11;82.13;95320.16;5134037;28;1087;-49
2022/06/20 04:05:47;;;;;;;;;;;;;;;14.28;81.23;95323.56;5134326;28;1031;-50
2022/06/20 04:08:16;;;;;;;;;;;;;;;14.54;80.80;95320.50;5116652;28;1902;-49
2022/06/20 04:10:59;;;;;;;;;;;;;;;14.73;79.31;95319.19;5134065;28;1080;-49
2022/06/20 04:13:45;;;;;;;;;;;;;;;14.89;79.76;95319.06;5133903;28;1083;-48
2022/06/20 04:16:25;;;;;;;;;;;;;;;15.12;79.62;95312.72;5122883;28;1915;-50
2022/06/20 04:18:54;;;;;;;;;;;;;;;15.17;79.20;95308.44;5134084;28;1115;-50
2022/06/20 04:21:28;;;;;;;;;;;;;;;15.32;79.06;95300.38;5133963;28;1020;-51
2022/06/20 04:24:01;;;;;;;;;;;;;;;15.37;77.46;95311.44;5133768;28;968;-53
2022/06/20 04:26:38;;;;;;;;;;;;;;;15.57;77.44;95317.06;5133736;28;1028;-50
2022/06/20 04:29:09;;;;;;;;;;;;;;;15.80;77.14;95313.44;5134179;28;1020;-49
2022/06/20 04:31:54;;;;;;;;;;;;;;;15.94;75.37;95304.47;5133795;27;1034;-49
2022/06/20 04:34:26;;;;;;;;;;;;;;;16.16;74.20;95310.75;5136700;27;1988;-50
2022/06/20 04:37:02;;;;;;;;;;;;;;;16.19;74.82;95312.22;5137850;27;956;-49
2022/06/20 04:39:28;;;;;;;;;;;;;;;16.28;73.49;95312.94;5138149;27;1027;-49
2022/06/20 04:42:09;;;;;;;;;;;;;;;16.46;73.72;95310.59;5137478;27;1084;-50
2022/06/20 04:44:38;;;;;;;;;;;;;;;16.57;72.49;95315.47;5137722;27;1012;-49
2022/06/20 04:47:13;;;;;;;;;;;;;;;16.59;71.64;95310.72;5137699;27;936;-50
2022/06/20 04:49:39;;;;;;;;;;;;;;;16.69;73.38;95312.25;5137650;27;1041;-50
2022/06/20 04:52:08;;;;;;;;;;;;;;;16.69;71.96;95307.66;5137504;27;1047;-50
2022/06/20 04:54:34;;;;;;;;;;;;;;;16.72;72.24;95303.78;5137218;27;1996;-50
2022/06/20 04:57:01;;;;;;;;;;;;;;;16.73;71.13;95305.41;5137242;27;1038;-49
2022/06/20 04:59:30;;;;;;;;;;;;;;;16.81;73.87;95312.53;5137236;27;987;-50
2022/06/20 05:01:58;;;;;;;;;;;;;;;16.94;72.07;95308.13;5137389;27;964;-49
2022/06/20 05:04:36;;;;;;;;;;;;;;;16.97;71.70;95302.31;5137325;27;1068;-49
2022/06/20 05:07:06;;;;;;;;;;;;;;;16.90;71.90;95301.47;5150730;27;1208;-49
2022/06/20 05:09:36;;;;;;;;;;;;;;;17.11;72.18;95300.56;5157965;27;1022;-49
2022/06/20 05:12:15;;;;;;;;;;;;;;;17.14;72.60;95296.63;5157774;27;1025;-50
2022/06/20 05:14:46;;;;;;;;;;;;;;;17.34;71.28;95302.97;5157968;27;1905;-50
2022/06/20 05:17:21;;;;;;;;;;;;;;;17.49;70.82;95299.28;5157756;27;1817;-49
2022/06/20 05:19:49;;;;;;;;;;;;;;;17.66;71.45;95295.22;5157833;27;1100;-50
2022/06/20 05:22:28;;;;;;;;;;;;;;;17.54;69.26;95302.22;5157610;27;1066;-50
2022/06/20 05:24:56;;;;;;;;;;;;;;;17.50;69.81;95296.38;5157932;27;1064;-50
2022/06/20 05:27:25;;;;;;;;;;;;;;;17.54;70.92;95291.41;5157408;27;1012;-50
2022/06/20 05:29:52;;;;;;;;;;;;;;;17.83;71.66;95284.91;5157496;27;1020;-50
2022/06/20 05:32:39;;;;;;;;;;;;;;;18.12;69.32;95283.75;5157543;27;1050;-50
2022/06/20 05:35:13;;;;;;;;;;;;;;;18.43;69.58;95285.03;5157299;27;1994;-50
2022/06/20 05:37:42;;;;;;;;;;;;;;;18.51;69.81;95282.13;5157139;27;901;-49
2022/06/20 05:40:08;;;;;;;;;;;;;;;18.52;68.39;95281.09;5157358;27;1233;-50
2022/06/20 05:42:34;;;;;;;;;;;;;;;18.69;69.02;95281.53;5157257;27;1051;-50
2022/06/20 05:45:01;;;;;;;;;;;;;;;18.87;71.39;95280.91;5156658;27;1075;-50
2022/06/20 05:47:32;;;;;;;;;;;;;;;18.96;70.32;95278.00;5157164;27;1024;-49
2022/06/20 05:50:08;;;;;;;;;;;;;;;18.88;70.86;95260.09;5157313;27;1047;-49
2022/06/20 05:52:34;;;;;;;;;;;;;;;19.07;70.54;95269.22;5157193;27;1015;-49
2022/06/20 05:55:08;;;;;;;;;;;;;;;19.04;70.35;95266.94;5156656;27;1917;-49
2022/06/20 05:57:35;;;;;;;;;;;;;;;19.29;69.46;95264.38;5156877;27;1237;-49
2022/06/20 06:00:04;;;;;;;;;;;;;;;19.33;66.64;95259.34;5156738;27;1044;-49
2022/06/20 06:02:34;;;;;;;;;;;;;;;19.62;67.48;95261.56;5157063;27;1014;-49
2022/06/20 06:05:16;;;;;;;;;;;;;;;19.88;67.80;95270.63;5157028;27;1042;-50
2022/06/20 06:07:45;;;;;;;;;;;;;;;19.85;65.12;95265.66;5137472;27;1141;-49
2022/06/20 06:10:30;;;;;;;;;;;;;;;19.97;66.89;95266.63;5135889;27;1020;-50
2022/06/20 06:13:09;;;;;;;;;;;;;;;20.08;67.91;95263.22;5117957;27;1052;-50
2022/06/20 06:16:46;;;;;;;;;;;;;;;20.19;66.66;95261.72;5135754;27;1987;-49
2022/06/20 06:18:29;;;;;;;;;;;;;;;20.45;65.99;95258.00;5135585;27;1389;-50
2022/06/20 06:20:55;;;;;;;;;;;;;;;20.42;65.46;95263.03;5135699;27;968;-50
2022/06/20 06:23:21;;;;;;;;;;;;;;;20.39;64.36;95258.03;5135632;27;1111;-50
2022/06/20 06:25:47;;;;;;;;;;;;;;;20.51;66.70;95256.28;5135854;27;1037;-50
2022/06/20 06:28:15;;;;;;;;;;;;;;;20.60;65.67;95255.00;5135755;27;996;-50
2022/06/20 06:30:58;;;;;;;;;;;;;;;20.61;63.55;95248.50;5135499;27;968;-50
2022/06/20 06:33:30;;;;;;;;;;;;;;;20.85;64.57;95256.88;5135431;27;996;-50
2022/06/20 06:36:01;;;;;;;;;;;;;;;21.00;62.96;95261.94;5135444;27;1988;-50
2022/06/20 06:38:27;;;;;;;;;;;;;;;20.92;62.42;95257.63;5135439;27;1055;-50
2022/06/20 06:40:55;;;;;;;;;;;;;;;21.03;64.52;95258.78;5135255;27;1080;-51
2022/06/20 06:43:28;;;;;;;;;;;;;;;21.19;63.77;95260.94;5135453;27;997;-51
2022/06/20 06:45:57;;;;;;;;;;;;;;;21.37;62.63;95264.72;5135115;27;1007;-50
2022/06/20 06:48:42;;;;;;;;;;;;;;;21.11;60.83;95258.50;5135526;27;1054;-50
2022/06/20 06:51:08;;;;;;;;;;;;;;;21.17;61.96;95244.03;5135197;27;1071;-50
2022/06/20 06:53:53;;;;;;;;;;;;;;;21.36;63.24;95244.00;5134935;27;921;-50
2022/06/20 06:56:23;;;;;;;;;;;;;;;21.69;61.33;95237.41;5134253;27;1901;-50
2022/06/20 06:58:54;;;;;;;;;;;;;;;21.78;60.99;95236.03;5135159;27;1032;-50
2022/06/20 07:01:24;;;;;;;;;;;;;;;21.82;62.63;95223.63;5135253;27;1018;-49
2022/06/20 07:04:00;;;;;;;;;;;;;;;21.85;59.54;95220.44;5135039;27;976;-50
2022/06/20 07:06:31;;;;;;;;;;;;;;;21.94;58.03;95218.22;5143254;27;1236;-50
2022/06/20 07:09:02;;;;;;;;;;;;;;;21.92;56.93;95221.19;5155548;27;1039;-49
2022/06/20 07:11:31;;;;;;;;;;;;;;;22.14;59.03;95217.94;5155695;27;1027;-50
2022/06/20 07:13:57;;;;;;;;;;;;;;;22.29;57.63;95218.38;5155483;27;1154;-50
2022/06/20 07:16:28;;;;;;;;;;;;;;;22.28;59.44;95214.00;5155324;27;1909;-49
2022/06/20 07:18:55;;;;;;;;;;;;;;;22.37;56.38;95212.59;5155561;27;1023;-49
2022/06/20 07:21:23;;;;;;;;;;;;;;;22.46;57.97;95209.53;5155144;27;1023;-50
2022/06/20 07:23:55;;;;;;;;;;;;;;;22.54;57.89;95209.19;5155051;27;1028;-49
2022/06/20 07:26:23;;;;;;;;;;;;;;;22.61;58.12;95212.63;5155434;27;975;-49
2022/06/20 07:28:55;;;;;;;;;;;;;;;22.83;57.67;95209.34;5155494;27;1059;-50
2022/06/20 07:31:24;;;;;;;;;;;;;;;22.83;55.67;95206.63;5155130;27;1036;-50
2022/06/20 07:33:52;;;;;;;;;;;;;;;22.96;55.85;95209.09;5155313;27;980;-49
2022/06/20 07:36:22;;;;;;;;;;;;;;;23.09;56.45;95208.91;5154911;27;1984;-50
2022/06/20 07:38:51;;;;;;;;;;;;;;;23.13;55.07;95220.16;5155147;27;1056;-50
2022/06/20 07:41:49;;;;;;;;;;;;;;;23.30;55.93;95210.19;5154952;27;1245;-50
2022/06/20 07:44:23;;;;;;;;;;;;;;;23.36;53.90;95209.22;5098794;27;1384;-50
2022/06/20 07:46:55;;;;;;;;;;;;;;;23.39;51.55;95199.69;5154778;27;1059;-50
2022/06/20 07:49:26;;;;;;;;;;;;;;;23.41;53.40;95202.19;5155205;27;1004;-50
2022/06/20 07:51:56;;;;;;;;;;;;;;;23.50;55.07;95195.31;5155187;27;1028;-50
2022/06/20 07:54:27;;;;;;;;;;;;;;;23.53;54.78;95184.72;5154594;27;1983;-50
2022/06/20 07:56:57;;;;;;;;;;;;;;;23.58;55.22;95193.03;5154852;27;1006;-50
2022/06/20 07:59:27;;;;;;;;;;;;;;;23.77;54.29;95192.84;5155028;27;1197;-50
2022/06/20 08:01:56;;;;;;;;;;;;;;;23.74;55.30;95191.44;5154786;27;1095;-50
2022/06/20 08:04:28;;;;;;;;;;;;;;;23.71;53.33;95181.03;5154978;27;1056;-50
2022/06/20 08:06:57;;;;;;;;;;;;;;;23.74;52.30;95183.25;5143042;27;1200;-50
2022/06/20 08:09:26;;;;;;;;;;;;;;;23.71;51.56;95181.03;5138313;27;1047;-50
2022/06/20 08:11:59;;;;;;;;;;;;;;;23.93;51.45;95174.91;5138096;27;977;-50
2022/06/20 08:14:30;;;;;;;;;;;;;;;24.07;51.78;95172.69;5138346;27;1987;-50
2022/06/20 08:16:59;;;;;;;;;;;;;;;24.24;51.00;95176.28;5138084;27;1017;-50
2022/06/20 08:19:25;;;;;;;;;;;;;;;24.43;50.60;95168.66;5138227;27;1035;-50
2022/06/20 08:22:06;;;;;;;;;;;;;;;24.45;51.48;95171.16;5137904;27;1060;-50
2022/06/20 08:24:42;;;;;;;;;;;;;;;24.45;51.24;95169.25;5137756;27;1186;-50
2022/06/20 08:27:09;;;;;;;;;;;;;;;24.71;50.97;95170.53;5138295;27;1020;-50
2022/06/20 08:29:40;;;;;;;;;;;;;;;24.65;51.06;95170.72;5137966;27;1025;-50
2022/06/20 08:32:10;;;;;;;;;;;;;;;24.71;49.17;95170.53;5137739;27;1079;-50
2022/06/20 08:34:42;;;;;;;;;;;;;;;24.71;49.26;95165.06;5137683;27;2000;-50
2022/06/20 08:37:15;;;;;;;;;;;;;;;24.59;49.34;95166.25;5137942;27;945;-50
2022/06/20 08:40:01;;;;;;;;;;;;;;;24.67;50.62;95160.34;5137939;27;975;-50
2022/06/20 08:42:37;;;;;;;;;;;;;;;24.73;49.96;95151.97;5102671;28;1159;-50
2022/06/20 08:45:16;;;;;;;;;;;;;;;24.82;49.86;95157.84;5117055;28;1123;-50
2022/06/20 08:48:01;;;;;;;;;;;;;;;24.92;50.56;95155.25;5099095;28;1056;-50
2022/06/20 08:50:46;;;;;;;;;;;;;;;24.94;48.80;95149.53;5117079;28;1082;-50
2022/06/20 08:53:27;;;;;;;;;;;;;;;24.91;49.16;95150.88;5117009;28;1110;-50
2022/06/20 08:56:05;;;;;;;;;;;;;;;25.06;49.27;95147.53;5117039;28;1990;-50
2022/06/20 08:58:46;;;;;;;;;;;;;;;25.13;48.97;95150.09;5116832;28;1188;-50
2022/06/20 09:01:24;;;;;;;;;;;;;;;24.95;48.52;95148.47;5116626;28;1086;-50
2022/06/20 09:03:50;;;;;;;;;;;;;;;24.94;47.98;95144.06;5116804;28;1007;-50
2022/06/20 09:06:16;;;;;;;;;;;;;;;25.15;47.91;95142.44;5123325;27;1232;-50
2022/06/20 09:09:18;;;;;;;;;;;;;;;25.38;49.13;95144.13;5137355;27;974;-50
2022/06/20 09:11:50;;;;;;;;;;;;;;;25.62;50.19;95141.16;5053461;28;1202;-50
2022/06/20 09:14:35;;;;;;;;;;;;;;;25.73;49.66;95139.38;5123578;27;1905;-50
2022/06/20 09:17:07;;;;;;;;;;;;;;;25.70;47.00;95132.47;5118895;27;1019;-50
2022/06/20 09:19:33;;;;;;;;;;;;;;;25.65;47.48;95132.41;5136049;27;1060;-50
2022/06/20 09:22:14;;;;;;;;;;;;;;;25.61;47.83;95134.00;5136910;27;952;-50
2022/06/20 09:24:46;;;;;;;;;;;;;;;25.63;45.59;95123.63;5136630;27;1031;-50
2022/06/20 09:27:18;;;;;;;;;;;;;;;25.76;46.56;95120.50;5136918;27;1065;-50
2022/06/20 09:29:50;;;;;;;;;;;;;;;25.74;42.06;95121.84;5136761;27;1024;-50
2022/06/20 09:32:35;;;;;;;;;;;;;;;25.65;43.71;95113.25;5136547;27;1076;-50
2022/06/20 09:35:09;;;;;;;;;;;;;;;25.68;44.08;95113.56;5136716;27;1906;-50
2022/06/20 09:37:35;;;;;;;;;;;;;;;25.72;45.09;95108.41;5136391;27;1036;-50
2022/06/20 09:40:17;;;;;;;;;;;;;;;25.90;44.20;95108.06;5136835;27;949;-50
2022/06/20 09:42:55;;;;;;;;;;;;;;;25.96;40.42;95106.22;5136338;27;1257;-51
2022/06/20 09:45:28;;;;;;;;;;;;;;;25.77;39.44;95103.00;5136655;27;960;-52
2022/06/20 09:48:16;;;;;;;;;;;;;;;25.71;39.99;95106.78;5136231;27;1048;-50
2022/06/20 09:50:54;;;;;;;;;;;;;;;25.81;41.78;95114.25;5136557;27;1029;-50
2022/06/20 09:53:20;;;;;;;;;;;;;;;25.87;39.64;95105.81;5136163;27;1095;-50
2022/06/20 09:56:01;;;;;;;;;;;;;;;26.06;39.74;95100.84;5136075;27;1964;-50
2022/06/20 09:58:42;;;;;;;;;;;;;;;25.97;37.58;95098.81;5135972;27;1016;-50
2022/06/20 10:01:22;;;;;;;;;;;;;;;25.92;41.70;95094.13;5136225;27;1101;-50
2022/06/20 10:03:55;;;;;;;;;;;;;;;26.01;41.84;95089.00;5136524;27;957;-50
2022/06/20 10:06:27;;;;;;;;;;;;;;;26.09;40.08;95085.81;5128486;27;1204;-51
2022/06/20 10:09:22;;;;;;;;;;;;;;;26.29;41.95;95090.63;5115202;28;1024;-50
2022/06/20 10:12:06;;;;;;;;;;;;;;;26.43;42.77;95096.50;5042853;28;1224;-51
2022/06/20 10:14:55;;;;;;;;;;;;;;;26.47;40.46;95083.94;5115328;28;1918;-50
2022/06/20 10:17:30;;;;;;;;;;;;;;;26.33;40.75;95090.94;5115205;28;1083;-51
2022/06/20 10:20:29;;;;;;;;;;;;;;;26.25;42.11;95082.09;5115493;28;1028;-50
2022/06/20 10:23:01;;;;;;;;;;;;;;;26.33;42.58;95078.03;5053036;28;1729;-51
2022/06/20 10:25:33;;;;;;;;;;;;;;;26.18;38.86;95077.91;5114898;28;1019;-51
2022/06/20 10:27:59;;;;;;;;;;;;;;;25.98;40.55;95078.59;5114925;28;1021;-50
2022/06/20 10:30:36;;;;;;;;;;;;;;;26.05;42.01;95068.25;5115217;28;1056;-50
2022/06/20 10:33:02;;;;;;;;;;;;;;;26.28;43.93;95073.34;5114916;28;1048;-51
2022/06/20 10:35:40;;;;;;;;;;;;;;;26.51;43.83;95070.53;5114913;28;1996;-50
2022/06/20 10:38:13;;;;;;;;;;;;;;;26.65;44.21;95074.47;5114779;28;1025;-50
2022/06/20 10:40:45;;;;;;;;;;;;;;;26.70;41.07;95073.69;5119290;27;1234;-51
2022/06/20 10:43:31;;;;;;;;;;;;;;;26.64;41.04;95067.34;5135295;27;1135;-50
2022/06/20 10:46:16;;;;;;;;;;;;;;;26.62;42.12;95064.88;5083521;27;1957;-51
2022/06/20 10:48:54;;;;;;;;;;;;;;;26.75;42.62;95054.50;5135039;27;1825;-50
2022/06/20 10:51:20;;;;;;;;;;;;;;;26.81;43.17;95053.47;5135232;27;1015;-50
2022/06/20 10:54:03;;;;;;;;;;;;;;;26.86;44.17;95050.72;5134757;27;1035;-51
2022/06/20 10:56:37;;;;;;;;;;;;;;;26.88;42.32;95040.31;5135393;27;1906;-50
2022/06/20 10:59:15;;;;;;;;;;;;;;;26.70;41.43;95041.59;5134830;27;1027;-50
2022/06/20 11:02:02;;;;;;;;;;;;;;;26.62;42.27;95039.38;5135177;27;958;-50
2022/06/20 11:04:35;;;;;;;;;;;;;;;26.67;43.29;95025.66;5134901;27;1016;-50
2022/06/20 11:07:10;;;;;;;;;;;;;;;26.67;42.68;95034.75;5148217;27;1149;-50
2022/06/20 11:09:39;;;;;;;;;;;;;;;26.60;40.72;95025.91;5155421;27;1119;-50
2022/06/20 11:12:05;;;;;;;;;;;;;;;26.61;40.92;95024.81;5155785;27;1035;-50
2022/06/20 11:14:31;;;;;;;;;;;;;;;26.71;42.46;95025.97;5155336;27;1906;-50
2022/06/20 11:16:57;;;;;;;;;;;;;;;26.80;41.34;95021.63;5155468;27;1099;-50
2022/06/20 11:19:32;;;;;;;;;;;;;;;26.75;42.47;95014.22;5155296;27;1018;-50
2022/06/20 11:22:16;;;;;;;;;;;;;;;26.75;41.03;95021.59;5155257;27;1004;-50
2022/06/20 11:24:42;;;;;;;;;;;;;;;26.72;41.66;95019.41;5155115;27;974;-50
2022/06/20 11:27:17;;;;;;;;;;;;;;;26.80;41.99;95019.72;5155487;27;975;-51
2022/06/20 11:29:59;;;;;;;;;;;;;;;26.78;40.22;95016.41;5136752;27;1043;-50
2022/06/20 11:32:33;;;;;;;;;;;;;;;26.72;41.25;95006.50;5155200;27;1004;-50
2022/06/20 11:35:04;;;;;;;;;;;;;;;26.75;39.46;95010.63;5155051;27;1909;-51
2022/06/20 11:37:51;;;;;;;;;;;;;;;26.66;41.48;95008.41;5155318;27;1034;-50
2022/06/20 11:40:19;;;;;;;;;;;;;;;26.72;39.79;95002.94;5102764;27;1826;-50
2022/06/20 11:42:52;;;;;;;;;;;;;;;26.64;40.18;94998.81;5154613;27;964;-50
2022/06/20 11:45:21;;;;;;;;;;;;;;;26.82;41.75;94995.59;5155034;27;1203;-51
2022/06/20 11:47:49;;;;;;;;;;;;;;;26.86;39.70;94990.38;5155081;27;1004;-51
2022/06/20 11:50:18;;;;;;;;;;;;;;;26.88;39.87;94989.03;5155033;27;938;-51
2022/06/20 11:53:03;;;;;;;;;;;;;;;26.86;41.72;94990.38;5154959;27;1186;-50
2022/06/20 11:55:34;;;;;;;;;;;;;;;26.95;42.09;94983.31;5154445;27;1998;-50
2022/06/20 11:58:03;;;;;;;;;;;;;;;27.05;41.40;94975.13;5155609;27;968;-51
2022/06/20 12:00:36;;;;;;;;;;;;;;;27.08;41.48;94969.06;5154899;27;1023;-50
2022/06/20 12:03:40;;;;;;;;;;;;;;;27.08;38.55;94963.59;5155111;27;1048;-50
2022/06/20 12:06:06;;;;;;;;;;;;;;;27.08;41.84;94971.81;5050610;28;1268;-51
2022/06/20 12:08:35;;;;;;;;;;;;;;;27.13;40.53;94972.94;5050772;28;1064;-51
2022/06/20 12:11:07;;;;;;;;;;;;;;;27.13;42.11;94972.94;5091558;28;1061;-51
2022/06/20 12:13:39;;;;;;;;;;;;;;;27.08;41.42;94965.53;5134179;28;1214;-51
2022/06/20 12:16:29;;;;;;;;;;;;;;;27.10;39.20;94962.50;5133866;28;1988;-50
2022/06/20 12:24:40;;;;;;;;;;;;;;;27.10;39.37;94963.34;5133593;28;1067;-51
2022/06/20 12:27:13;;;;;;;;;;;;;;;27.12;40.21;94963.88;5134278;28;1020;-51
2022/06/20 12:29:39;;;;;;;;;;;;;;;27.20;41.75;94962.53;5133922;28;965;-50
2022/06/20 12:32:12;;;;;;;;;;;;;;;27.29;40.39;94960.94;5133943;28;1060;-50
2022/06/20 12:34:42;;;;;;;;;;;;;;;27.37;39.38;94954.91;5133740;28;1991;-50
2022/06/20 12:37:34;;;;;;;;;;;;;;;27.39;40.05;94951.91;5133930;28;1007;-50
2022/06/20 12:40:00;;;;;;;;;;;;;;;27.21;39.09;94947.72;5102206;28;1204;-51
2022/06/20 12:42:38;;;;;;;;;;;;;;;27.21;39.05;94945.81;5133674;28;1080;-51
2022/06/20 12:45:23;;;;;;;;;;;;;;;27.17;38.59;94946.63;5133687;28;1019;-50
2022/06/20 12:47:55;;;;;;;;;;;;;;;27.16;40.75;94944.97;5133809;28;953;-50
2022/06/20 12:50:30;;;;;;;;;;;;;;;27.10;39.31;94946.06;5133857;28;1048;-50
2022/06/20 12:52:56;;;;;;;;;;;;;;;27.10;39.03;94935.88;5133843;27;1091;-50
2022/06/20 12:55:31;;;;;;;;;;;;;;;27.17;40.11;94943.88;5117808;27;1985;-50
2022/06/20 12:57:57;;;;;;;;;;;;;;;27.21;39.68;94939.50;5137527;27;1017;-50
2022/06/20 13:00:26;;;;;;;;;;;;;;;27.32;40.60;94932.13;5137132;27;968;-50
2022/06/20 13:03:11;;;;;;;;;;;;;;;27.33;39.85;94933.78;5137593;27;934;-50
2022/06/20 13:05:52;;;;;;;;;;;;;;;27.15;37.25;94930.44;5138391;27;1232;-50
2022/06/20 13:08:21;;;;;;;;;;;;;;;27.10;40.04;94935.06;5158033;27;1083;-51
2022/06/20 13:11:06;;;;;;;;;;;;;;;27.19;40.24;94925.22;5157731;27;1047;-51
2022/06/20 13:13:32;;;;;;;;;;;;;;;27.21;39.75;94931.25;5157966;27;1038;-50
2022/06/20 13:16:05;;;;;;;;;;;;;;;27.20;40.51;94924.09;5157789;27;1936;-50
2022/06/20 13:18:37;;;;;;;;;;;;;;;27.24;41.12;94920.56;5157858;27;1019;-50
2022/06/20 13:21:03;;;;;;;;;;;;;;;27.23;39.28;94923.56;5157497;27;1098;-50
2022/06/20 13:23:47;;;;;;;;;;;;;;;27.20;39.50;94924.09;5157716;27;1035;-50
2022/06/20 13:26:32;;;;;;;;;;;;;;;27.19;40.10;94923.28;5157909;27;960;-50
2022/06/20 13:29:15;;;;;;;;;;;;;;;27.17;39.68;94921.94;5157722;27;947;-50
2022/06/20 13:31:48;;;;;;;;;;;;;;;27.11;40.54;94915.59;5157843;27;917;-49
2022/06/20 13:34:17;;;;;;;;;;;;;;;27.18;41.18;94912.59;5157527;27;1020;-51
2022/06/20 13:36:59;;;;;;;;;;;;;;;27.25;41.06;94904.94;5157122;27;1976;-50